Time;durP1;ratioP1;P1;durP2;ratioP2;P2;SDS_P1;SDS_P2;PMS_P1;PMS_P2;Temp;Humidity;BMP_temperature;BMP_pressure;BME280_temperature;BME280_humidity;BME280_pressure;Samples;Min_cycle;Max_cycle;Signal;HPM_P1;HPM_P2
2021/11/27 00:00:32;;;;;;;21.25;3.05;;;8.20;99.90;;;;;;4947513;29;20075;-83
2021/11/27 00:02:58;;;;;;;22.92;2.85;;;8.20;99.90;;;;;;4947087;29;20023;-84
2021/11/27 00:05:25;;;;;;;23.77;3.00;;;8.20;99.90;;;;;;4947306;29;20031;-84
2021/11/27 00:07:52;;;;;;;24.27;2.90;;;8.20;99.90;;;;;;4947421;29;20098;-84
2021/11/27 00:10:20;;;;;;;17.17;2.60;;;8.30;99.90;;;;;;4947113;29;20016;-83
2021/11/27 00:12:48;;;;;;;22.02;2.53;;;8.30;99.90;;;;;;4946891;29;20141;-83
2021/11/27 00:15:14;;;;;;;22.17;3.08;;;8.20;99.90;;;;;;4946692;29;20339;-83
2021/11/27 00:17:41;;;;;;;19.40;2.53;;;8.20;99.90;;;;;;4947297;29;20090;-84
2021/11/27 00:20:15;;;;;;;13.95;2.22;;;8.20;99.90;;;;;;4946034;29;20019;-83
2021/11/27 00:22:42;;;;;;;12.00;1.98;;;8.20;99.90;;;;;;4947217;29;20019;-82
2021/11/27 00:25:09;;;;;;;11.38;2.28;;;8.20;99.90;;;;;;4946503;29;20054;-82
2021/11/27 00:27:35;;;;;;;16.95;2.53;;;8.20;99.90;;;;;;4946841;29;20038;-82
2021/11/27 00:30:06;;;;;;;17.90;2.17;;;8.30;99.90;;;;;;4946644;29;20051;-82
2021/11/27 00:32:31;;;;;;;20.23;2.55;;;8.20;99.90;;;;;;4945991;29;20219;-82
2021/11/27 00:34:57;;;;;;;15.88;2.42;;;8.20;99.90;;;;;;4946884;29;20024;-82
2021/11/27 00:37:23;;;;;;;15.82;2.10;;;8.30;99.90;;;;;;4945847;29;20260;-82
2021/11/27 00:39:49;;;;;;;22.77;3.28;;;8.20;99.90;;;;;;4945791;29;20232;-83
2021/11/27 00:42:14;;;;;;;11.68;1.85;;;8.10;99.90;;;;;;4945857;29;20034;-82
2021/11/27 00:44:40;;;;;;;21.27;2.33;;;8.20;99.90;;;;;;4945887;29;20087;-82
2021/11/27 00:47:06;;;;;;;17.35;1.90;;;8.20;99.90;;;;;;4946192;29;20028;-82
2021/11/27 00:49:32;;;;;;;15.63;2.50;;;8.20;99.90;;;;;;4946292;29;20087;-82
2021/11/27 00:51:58;;;;;;;16.40;2.72;;;8.30;99.90;;;;;;4946210;29;20038;-82
2021/11/27 00:54:24;;;;;;;20.88;2.47;;;8.20;99.90;;;;;;4946431;29;20248;-82
2021/11/27 00:56:51;;;;;;;21.20;2.65;;;8.30;99.90;;;;;;4946006;29;20063;-82
2021/11/27 00:59:17;;;;;;;14.98;2.05;;;8.20;99.90;;;;;;4946368;29;20091;-82
2021/11/27 01:01:43;;;;;;;17.20;2.25;;;8.20;99.90;;;;;;4945599;29;20083;-82
2021/11/27 01:04:09;;;;;;;13.13;2.60;;;8.20;99.90;;;;;;4945711;29;20099;-82
2021/11/27 01:06:35;;;;;;;12.95;1.95;;;8.10;99.90;;;;;;4945726;29;20027;-82
2021/11/27 01:09:08;;;;;;;14.63;2.15;;;8.10;99.90;;;;;;4944695;29;20031;-82
2021/11/27 01:11:38;;;;;;;16.20;2.00;;;8.10;99.90;;;;;;4946147;29;20311;-82
2021/11/27 01:14:09;;;;;;;16.80;2.17;;;8.10;99.90;;;;;;4946566;29;20047;-83
2021/11/27 01:16:39;;;;;;;14.73;2.63;;;8.10;99.90;;;;;;4945147;29;20236;-82
2021/11/27 01:19:07;;;;;;;17.58;2.13;;;8.00;99.90;;;;;;4945651;29;20023;-82
2021/11/27 01:21:37;;;;;;;15.18;2.38;;;8.00;99.90;;;;;;4945262;29;20020;-82
2021/11/27 01:24:06;;;;;;;15.63;2.28;;;7.90;99.90;;;;;;4946097;29;20043;-82
2021/11/27 01:26:34;;;;;;;12.93;2.13;;;7.80;99.90;;;;;;4945700;29;20019;-82
2021/11/27 01:29:01;;;;;;;24.30;2.38;;;7.80;99.90;;;;;;4945630;29;20043;-82
2021/11/27 01:31:26;;;;;;;17.25;2.45;;;7.70;99.90;;;;;;4945878;29;20026;-82
2021/11/27 01:33:53;;;;;;;19.02;2.10;;;7.70;99.90;;;;;;4945412;29;20054;-82
2021/11/27 01:36:19;;;;;;;14.88;2.28;;;7.60;99.90;;;;;;4943686;29;20222;-82
2021/11/27 01:38:45;;;;;;;13.75;3.08;;;7.60;99.90;;;;;;4944934;29;20047;-82
2021/11/27 01:41:11;;;;;;;15.48;2.70;;;7.70;99.90;;;;;;4945324;29;20035;-83
2021/11/27 01:43:37;;;;;;;18.08;2.38;;;7.70;99.90;;;;;;4945299;29;20027;-82
2021/11/27 01:46:04;;;;;;;18.48;2.33;;;7.70;99.90;;;;;;4945321;29;20280;-82
2021/11/27 01:48:30;;;;;;;12.55;1.92;;;7.70;99.90;;;;;;4943703;29;20015;-82
2021/11/27 01:51:03;;;;;;;15.25;2.38;;;7.60;99.90;;;;;;4945849;29;20102;-82
2021/11/27 01:53:31;;;;;;;15.77;1.98;;;7.60;99.90;;;;;;4944806;29;20015;-83
2021/11/27 01:56:00;;;;;;;17.17;1.95;;;7.50;99.90;;;;;;4944124;29;20048;-83
2021/11/27 01:58:30;;;;;;;13.00;2.33;;;7.50;99.90;;;;;;4945148;29;20248;-83
2021/11/27 02:01:01;;;;;;;15.75;2.00;;;7.40;99.90;;;;;;4944946;29;20020;-82
2021/11/27 02:03:28;;;;;;;12.20;1.83;;;7.40;99.90;;;;;;4943606;29;20032;-82
2021/11/27 02:05:53;;;;;;;13.65;2.22;;;7.40;99.90;;;;;;4945176;29;20038;-82
2021/11/27 02:08:19;;;;;;;11.68;1.85;;;7.50;99.90;;;;;;4943787;29;20312;-82
2021/11/27 02:10:46;;;;;;;12.32;1.17;;;7.50;99.90;;;;;;4944766;29;20091;-83
2021/11/27 02:13:13;;;;;;;14.00;2.00;;;7.60;99.90;;;;;;4944430;29;20252;-82
2021/11/27 02:15:39;;;;;;;10.85;1.83;;;7.60;99.90;;;;;;4944385;29;20035;-82
2021/11/27 02:18:05;;;;;;;12.02;2.00;;;7.60;99.90;;;;;;4942932;29;20035;-82
2021/11/27 02:20:40;;;;;;;12.35;1.88;;;7.70;99.90;;;;;;4944387;29;20024;-82
2021/11/27 02:23:07;;;;;;;18.60;2.20;;;7.60;99.90;;;;;;4943746;29;20370;-83
2021/11/27 02:25:33;;;;;;;17.45;2.70;;;7.60;99.90;;;;;;4943051;29;20032;-82
2021/11/27 02:28:00;;;;;;;16.80;2.08;;;7.60;99.90;;;;;;4944825;29;20032;-83
2021/11/27 02:30:26;;;;;;;11.20;2.00;;;7.50;99.90;;;;;;4944106;29;20090;-83
2021/11/27 02:32:52;;;;;;;17.55;1.90;;;7.60;99.90;;;;;;4944195;29;20223;-82
2021/11/27 02:35:19;;;;;;;13.85;1.80;;;7.60;99.90;;;;;;4944360;29;20035;-82
2021/11/27 02:37:45;;;;;;;14.85;1.77;;;7.60;99.90;;;;;;4944316;29;20212;-83
2021/11/27 02:40:12;;;;;;;12.68;1.95;;;7.60;99.90;;;;;;4944246;29;20169;-82
2021/11/27 02:42:39;;;;;;;13.63;1.92;;;7.60;99.90;;;;;;4944313;29;20050;-83
2021/11/27 02:45:08;;;;;;;8.43;1.88;;;7.50;99.90;;;;;;4943818;29;20031;-82
2021/11/27 02:47:34;;;;;;;14.23;2.00;;;7.50;99.90;;;;;;4944642;29;20304;-82
2021/11/27 02:50:02;;;;;;;15.73;2.50;;;7.50;99.90;;;;;;4944390;29;20062;-82
2021/11/27 02:52:29;;;;;;;13.02;2.08;;;7.40;99.90;;;;;;4943536;29;20562;-83
2021/11/27 02:54:57;;;;;;;8.13;1.60;;;7.40;99.90;;;;;;4942864;29;20019;-82
2021/11/27 02:57:23;;;;;;;7.63;1.70;;;7.40;99.90;;;;;;4943847;29;20051;-82
2021/11/27 02:59:49;;;;;;;13.73;2.17;;;7.40;99.90;;;;;;4944042;29;20032;-82
2021/11/27 03:02:15;;;;;;;16.83;2.35;;;7.30;99.90;;;;;;4943574;29;20054;-83
2021/11/27 03:04:40;;;;;;;12.15;1.50;;;7.30;99.90;;;;;;4944030;29;20326;-83
2021/11/27 03:07:07;;;;;;;9.38;1.50;;;7.30;99.90;;;;;;4943937;29;20058;-83
2021/11/27 03:09:34;;;;;;;12.60;1.67;;;7.20;99.90;;;;;;4944013;29;20058;-83
2021/11/27 03:12:01;;;;;;;17.65;2.22;;;7.20;99.90;;;;;;4944127;29;20103;-82
2021/11/27 03:14:28;;;;;;;7.78;2.05;;;7.20;99.90;;;;;;4943786;29;20016;-83
2021/11/27 03:16:55;;;;;;;8.95;1.75;;;7.20;99.90;;;;;;4943729;29;20046;-83
2021/11/27 03:19:21;;;;;;;8.75;1.25;;;7.20;99.90;;;;;;4943790;29;20107;-83
2021/11/27 03:21:48;;;;;;;8.23;1.45;;;7.20;99.90;;;;;;4943300;29;20102;-82
2021/11/27 03:24:14;;;;;;;7.32;1.45;;;7.30;99.90;;;;;;4944069;29;20024;-82
2021/11/27 03:26:40;;;;;;;13.00;2.78;;;7.30;99.90;;;;;;4943698;29;20099;-83
2021/11/27 03:29:05;;;;;;;10.63;1.75;;;7.30;99.90;;;;;;4943595;29;20031;-83
2021/11/27 03:31:31;;;;;;;12.65;1.95;;;7.20;99.90;;;;;;4946725;29;20079;-83
2021/11/27 03:33:57;;;;;;;16.70;2.13;;;7.10;99.90;;;;;;4947972;29;20038;-83
2021/11/27 03:36:23;;;;;;;12.85;2.20;;;7.10;99.90;;;;;;4947535;29;20085;-83
2021/11/27 03:38:49;;;;;;;9.30;1.42;;;7.20;99.90;;;;;;4947985;29;20031;-83
2021/11/27 03:41:16;;;;;;;14.63;1.60;;;7.20;99.90;;;;;;4932626;29;20185;-83
2021/11/27 03:43:43;;;;;;;10.85;1.90;;;7.20;99.90;;;;;;4917923;29;20029;-83
2021/11/27 03:46:09;;;;;;;13.85;1.98;;;7.20;99.90;;;;;;4917574;29;20513;-84
2021/11/27 03:48:40;;;;;;;8.05;1.52;;;7.20;99.90;;;;;;4917343;29;20509;-83
2021/11/27 03:51:13;;;;;;;12.40;1.52;;;7.30;99.90;;;;;;4917532;29;20052;-83
2021/11/27 03:53:40;;;;;;;9.67;2.03;;;7.30;99.90;;;;;;4917553;29;20036;-82
2021/11/27 03:56:09;;;;;;;12.18;1.88;;;7.30;99.90;;;;;;4915716;29;20275;-83
2021/11/27 03:58:36;;;;;;;13.02;1.50;;;7.30;99.90;;;;;;4917518;29;20047;-83
2021/11/27 04:01:05;;;;;;;12.02;2.15;;;7.20;99.90;;;;;;4917533;29;20489;-83
2021/11/27 04:03:32;;;;;;;11.20;1.67;;;7.20;99.90;;;;;;4917276;29;20447;-83
2021/11/27 04:06:01;;;;;;;11.88;1.63;;;7.30;99.90;;;;;;4924045;29;20020;-83
2021/11/27 04:08:27;;;;;;;8.27;1.50;;;7.30;99.90;;;;;;4935803;29;20130;-83
2021/11/27 04:10:53;;;;;;;14.32;1.60;;;7.30;99.90;;;;;;4936970;29;20439;-84
2021/11/27 04:13:20;;;;;;;11.00;1.92;;;7.30;99.90;;;;;;4935877;29;20055;-86
2021/11/27 04:15:46;;;;;;;14.88;2.85;;;7.30;99.90;;;;;;4935688;29;20024;-82
2021/11/27 04:18:13;;;;;;;12.90;1.60;;;7.30;99.90;;;;;;4933204;29;20464;-87
2021/11/27 04:20:39;;;;;;;14.10;2.08;;;7.30;99.90;;;;;;4931963;29;20025;-82
2021/11/27 04:23:05;;;;;;;15.70;1.63;;;7.30;99.90;;;;;;4935603;29;20054;-87
2021/11/27 04:25:31;;;;;;;11.48;1.60;;;7.30;99.90;;;;;;4935296;29;20071;-83
2021/11/27 04:27:57;;;;;;;17.65;2.05;;;7.30;99.90;;;;;;4935220;29;20036;-88
2021/11/27 04:30:25;;;;;;;10.45;1.73;;;7.30;99.90;;;;;;4935849;29;20027;-89
2021/11/27 04:32:52;;;;;;;11.35;1.70;;;7.30;99.90;;;;;;4934598;29;20515;-85
2021/11/27 04:35:18;;;;;;;11.45;2.45;;;7.20;99.90;;;;;;4935578;29;20198;-82
2021/11/27 04:37:45;;;;;;;11.65;1.77;;;7.10;99.90;;;;;;4934486;29;20110;-82
2021/11/27 04:40:12;;;;;;;14.05;1.70;;;7.10;99.90;;;;;;4935889;29;20020;-82
2021/11/27 04:42:38;;;;;;;10.05;2.00;;;7.20;99.90;;;;;;4935420;29;20027;-82
2021/11/27 04:45:06;;;;;;;12.02;1.95;;;7.20;99.90;;;;;;4935658;29;20115;-82
2021/11/27 04:47:32;;;;;;;8.93;1.67;;;7.20;99.90;;;;;;4935487;29;20024;-82
2021/11/27 04:49:57;;;;;;;8.38;1.50;;;7.10;99.90;;;;;;4935589;29;20039;-82
2021/11/27 04:52:24;;;;;;;8.25;1.33;;;7.10;99.90;;;;;;4935664;29;20103;-86
2021/11/27 04:54:51;;;;;;;10.93;1.23;;;7.10;99.90;;;;;;4935498;29;20039;-82
2021/11/27 04:57:17;;;;;;;8.93;1.33;;;7.10;99.90;;;;;;4935170;29;20055;-81
2021/11/27 04:59:43;;;;;;;12.57;1.60;;;7.10;99.90;;;;;;4935067;29;20044;-81
2021/11/27 05:02:09;;;;;;;7.38;1.40;;;7.10;99.90;;;;;;4935012;29;20115;-81
2021/11/27 05:04:35;;;;;;;9.77;1.30;;;7.10;99.90;;;;;;4935034;29;20110;-81
2021/11/27 05:07:01;;;;;;;9.80;1.63;;;7.00;99.90;;;;;;4935073;29;20028;-81
2021/11/27 05:09:26;;;;;;;11.77;2.33;;;7.00;99.90;;;;;;4934969;29;20020;-81
2021/11/27 05:11:52;;;;;;;12.98;1.92;;;7.00;99.90;;;;;;4935064;29;20107;-81
2021/11/27 05:14:18;;;;;;;8.20;1.25;;;6.90;99.90;;;;;;4934920;29;20110;-81
2021/11/27 05:16:44;;;;;;;8.50;1.77;;;6.90;99.90;;;;;;4934742;29;20028;-80
2021/11/27 05:19:09;;;;;;;8.57;1.38;;;6.80;99.90;;;;;;4934662;29;20034;-81
2021/11/27 05:21:35;;;;;;;7.43;1.08;;;6.80;99.90;;;;;;4934762;29;20078;-81
2021/11/27 05:24:02;;;;;;;12.68;1.30;;;6.70;99.90;;;;;;4934620;29;20042;-81
2021/11/27 05:26:27;;;;;;;7.45;1.90;;;6.70;99.90;;;;;;4934771;29;20412;-81
2021/11/27 05:28:53;;;;;;;8.75;1.20;;;6.60;99.90;;;;;;4934697;29;20050;-82
2021/11/27 05:31:21;;;;;;;9.38;1.70;;;6.60;99.90;;;;;;4933586;29;20035;-81
2021/11/27 05:36:15;;;;;;;10.88;1.48;;;6.50;99.90;;;;;;4934606;29;20034;-81
2021/11/27 05:38:41;;;;;;;10.38;1.02;;;6.50;99.90;;;;;;4934080;29;20386;-81
2021/11/27 05:41:06;;;;;;;9.35;1.40;;;6.50;99.90;;;;;;4933062;29;20024;-81
2021/11/27 05:43:33;;;;;;;14.18;1.65;;;6.40;99.90;;;;;;4934854;29;20055;-83
2021/11/27 05:45:59;;;;;;;9.95;1.38;;;6.40;99.90;;;;;;4934310;29;20055;-83
2021/11/27 05:48:25;;;;;;;13.77;1.48;;;6.40;99.90;;;;;;4934244;29;20032;-80
2021/11/27 05:50:51;;;;;;;11.27;1.40;;;6.30;99.90;;;;;;4934179;29;20101;-81
2021/11/27 05:53:18;;;;;;;13.02;1.63;;;6.40;99.90;;;;;;4933499;29;20050;-83
2021/11/27 05:55:47;;;;;;;12.15;1.38;;;6.30;99.90;;;;;;4932844;29;20030;-84
2021/11/27 05:58:14;;;;;;;11.07;2.03;;;6.30;99.90;;;;;;4933706;29;20051;-83
2021/11/27 06:00:39;;;;;;;12.43;3.30;;;6.40;99.90;;;;;;4934119;29;20028;-83
2021/11/27 06:03:05;;;;;;;13.18;3.17;;;6.40;99.90;;;;;;4934066;29;20042;-81
2021/11/27 06:05:31;;;;;;;6.93;1.42;;;6.30;99.90;;;;;;4933933;29;20473;-80
2021/11/27 06:07:57;;;;;;;10.70;2.53;;;6.40;99.90;;;;;;4934039;29;20047;-81
2021/11/27 06:10:23;;;;;;;16.13;3.15;;;6.30;99.90;;;;;;4932456;29;20075;-81
2021/11/27 06:12:49;;;;;;;13.68;1.83;;;6.30;99.90;;;;;;4933858;29;20437;-81
2021/11/27 06:15:15;;;;;;;23.67;2.65;;;6.30;99.90;;;;;;4933981;29;20027;-81
2021/11/27 06:17:41;;;;;;;10.30;2.08;;;6.30;99.90;;;;;;4932225;29;20400;-81
2021/11/27 06:20:07;;;;;;;15.63;3.05;;;6.30;99.90;;;;;;4933854;29;20024;-81
2021/11/27 06:22:33;;;;;;;17.23;3.50;;;6.20;99.90;;;;;;4933774;29;20032;-81
2021/11/27 06:24:59;;;;;;;14.13;2.28;;;6.20;99.90;;;;;;4933624;29;20022;-81
2021/11/27 06:27:24;;;;;;;15.38;1.83;;;6.20;99.90;;;;;;4933613;29;20028;-81
2021/11/27 06:29:50;;;;;;;10.30;1.40;;;6.20;99.90;;;;;;4932388;29;20039;-81
2021/11/27 06:32:21;;;;;;;13.57;1.67;;;6.20;99.90;;;;;;4933602;29;20055;-80
2021/11/27 06:34:48;;;;;;;12.60;2.58;;;6.20;99.90;;;;;;4933749;29;20059;-81
2021/11/27 06:37:13;;;;;;;14.38;2.33;;;6.20;99.90;;;;;;4933908;29;20034;-81
2021/11/27 06:39:39;;;;;;;10.02;2.00;;;6.30;99.90;;;;;;4933396;29;20028;-83
2021/11/27 06:42:05;;;;;;;12.38;2.08;;;6.30;99.90;;;;;;4933453;29;20082;-83
2021/11/27 06:44:32;;;;;;;12.52;2.55;;;6.40;99.90;;;;;;4933536;29;20078;-83
2021/11/27 06:46:58;;;;;;;20.55;2.80;;;6.50;99.90;;;;;;4933357;29;20038;-82
2021/11/27 06:49:24;;;;;;;15.52;5.18;;;6.40;99.90;;;;;;4933230;29;20416;-81
2021/11/27 06:51:50;;;;;;;16.67;4.32;;;6.50;99.90;;;;;;4933111;29;20425;-81
2021/11/27 06:54:15;;;;;;;18.15;9.63;;;6.50;99.90;;;;;;4933061;29;20024;-81
2021/11/27 06:56:41;;;;;;;15.77;3.13;;;6.50;99.90;;;;;;4933426;29;20044;-81
2021/11/27 06:59:07;;;;;;;14.02;2.75;;;6.60;99.90;;;;;;4931772;29;20032;-83
2021/11/27 07:01:33;;;;;;;17.73;2.00;;;6.60;99.90;;;;;;4933177;29;20485;-82
2021/11/27 07:03:59;;;;;;;20.08;3.20;;;6.70;99.90;;;;;;4933288;29;20377;-81
2021/11/27 07:06:25;;;;;;;11.75;2.10;;;6.70;99.90;;;;;;4932390;29;20503;-81
2021/11/27 07:08:50;;;;;;;17.13;3.38;;;6.80;99.90;;;;;;4932694;29;20103;-81
2021/11/27 07:11:16;;;;;;;18.02;2.38;;;6.80;99.90;;;;;;4932999;29;20115;-81
2021/11/27 07:13:42;;;;;;;14.50;2.20;;;6.80;99.90;;;;;;4932979;29;20143;-81
2021/11/27 07:16:08;;;;;;;14.40;2.35;;;6.80;99.90;;;;;;4933278;29;20111;-81
2021/11/27 07:18:33;;;;;;;12.30;2.35;;;6.80;99.90;;;;;;4932988;29;20099;-81
2021/11/27 07:20:59;;;;;;;12.90;2.20;;;6.80;99.90;;;;;;4933010;29;20039;-81
2021/11/27 07:23:25;;;;;;;15.75;1.88;;;6.80;99.90;;;;;;4932615;29;20032;-81
2021/11/27 07:25:50;;;;;;;10.25;1.20;;;6.80;99.90;;;;;;4932979;29;20027;-81
2021/11/27 07:28:16;;;;;;;9.57;1.20;;;6.80;99.90;;;;;;4932925;29;20269;-81
2021/11/27 07:30:42;;;;;;;5.57;1.20;;;6.80;99.90;;;;;;4932900;29;20346;-81
2021/11/27 07:33:08;;;;;;;10.98;1.63;;;6.80;99.90;;;;;;4932835;29;20043;-81
2021/11/27 07:35:34;;;;;;;4.18;0.80;;;6.80;99.90;;;;;;4932898;29;20465;-81
2021/11/27 07:38:01;;;;;;;9.95;1.27;;;6.70;99.90;;;;;;4932578;29;20039;-81
2021/11/27 07:40:27;;;;;;;9.77;1.45;;;6.70;99.90;;;;;;4932895;29;20027;-80
2021/11/27 07:42:53;;;;;;;6.47;1.38;;;6.60;99.90;;;;;;4932674;29;20126;-81
2021/11/27 07:45:21;;;;;;;8.00;1.50;;;6.70;99.90;;;;;;4933061;29;20528;-81
2021/11/27 07:47:47;;;;;;;7.85;1.58;;;6.70;99.90;;;;;;4934445;29;20056;-82
2021/11/27 07:50:13;;;;;;;8.18;2.85;;;6.70;99.90;;;;;;4933705;29;20024;-81
2021/11/27 07:52:39;;;;;;;6.88;2.35;;;6.70;99.90;;;;;;4934004;29;20043;-82
2021/11/27 07:55:05;;;;;;;17.23;4.68;;;6.80;99.90;;;;;;4933998;29;20024;-81
2021/11/27 07:57:31;;;;;;;8.00;1.52;;;6.80;99.90;;;;;;4933232;29;20079;-81
2021/11/27 07:59:56;;;;;;;5.78;1.50;;;6.70;99.90;;;;;;4933731;29;20031;-81
2021/11/27 08:02:22;;;;;;;8.50;1.48;;;6.80;99.90;;;;;;4934012;29;20040;-81
2021/11/27 08:04:48;;;;;;;8.75;2.00;;;6.80;99.90;;;;;;4933495;29;20099;-81
2021/11/27 08:07:13;;;;;;;5.88;1.35;;;6.80;99.90;;;;;;4933933;29;20031;-81
2021/11/27 08:09:39;;;;;;;11.52;2.42;;;6.80;99.90;;;;;;4933745;29;20023;-81
2021/11/27 08:12:05;;;;;;;9.90;1.67;;;6.80;99.90;;;;;;4933391;29;20019;-80
2021/11/27 08:14:32;;;;;;;6.47;1.80;;;6.90;99.90;;;;;;4933057;29;20223;-80
2021/11/27 08:16:59;;;;;;;5.65;1.52;;;6.90;99.90;;;;;;4934998;29;20031;-81
2021/11/27 08:19:26;;;;;;;4.60;1.20;;;6.90;99.90;;;;;;4935961;29;20088;-82
2021/11/27 08:21:52;;;;;;;6.60;1.42;;;6.90;99.90;;;;;;4936543;29;20102;-81
2021/11/27 08:24:17;;;;;;;5.38;1.00;;;6.90;99.90;;;;;;4935875;29;20032;-81
2021/11/27 08:26:43;;;;;;;6.45;0.80;;;6.80;99.90;;;;;;4935477;29;20028;-86
2021/11/27 08:29:09;;;;;;;4.43;0.80;;;6.80;99.90;;;;;;4935298;29;20027;-86
2021/11/27 08:31:34;;;;;;;5.57;1.08;;;6.80;99.90;;;;;;4942364;29;20052;-85
2021/11/27 08:34:01;;;;;;;10.25;1.23;;;6.90;99.90;;;;;;4932355;29;20265;-87
2021/11/27 08:36:27;;;;;;;10.60;1.65;;;7.00;99.90;;;;;;4915477;29;20477;-87
2021/11/27 08:38:52;;;;;;;8.55;1.90;;;7.10;99.90;;;;;;4916803;29;20047;-87
2021/11/27 08:41:18;;;;;;;11.65;2.28;;;7.30;99.90;;;;;;4915743;29;20485;-87
2021/11/27 08:43:44;;;;;;;9.98;2.33;;;7.40;99.90;;;;;;4917064;29;20028;-87
2021/11/27 08:46:10;;;;;;;12.25;1.77;;;7.40;99.90;;;;;;4927277;29;20027;-88
2021/11/27 08:48:36;;;;;;;10.77;1.98;;;7.50;99.90;;;;;;4926804;29;20021;-88
2021/11/27 08:51:10;;;;;;;14.32;2.42;;;7.60;99.90;;;;;;4927337;29;20032;-87
2021/11/27 08:53:36;;;;;;;11.65;1.95;;;7.60;99.90;;;;;;4926999;29;20049;-87
2021/11/27 08:56:05;;;;;;;13.70;2.35;;;7.70;99.90;;;;;;4927219;29;20034;-87
2021/11/27 08:58:31;;;;;;;19.77;3.42;;;7.70;99.90;;;;;;4919799;29;20048;-87
2021/11/27 09:00:57;;;;;;;22.10;3.42;;;7.80;99.90;;;;;;4926314;29;20051;-87
2021/11/27 09:03:23;;;;;;;15.77;3.20;;;7.90;99.90;;;;;;4926815;29;20028;-88
2021/11/27 09:05:49;;;;;;;14.98;2.63;;;8.00;99.90;;;;;;4927549;29;20020;-87
2021/11/27 09:08:15;;;;;;;19.70;2.90;;;8.00;99.90;;;;;;4925956;29;20030;-88
2021/11/27 09:10:41;;;;;;;26.95;4.03;;;8.10;99.90;;;;;;4925736;29;20043;-87
2021/11/27 09:13:07;;;;;;;14.50;2.17;;;8.10;99.90;;;;;;4942049;29;20031;-87
2021/11/27 09:15:33;;;;;;;17.20;2.40;;;8.10;99.90;;;;;;4941631;29;20024;-88
2021/11/27 09:17:58;;;;;;;17.15;2.25;;;8.00;99.90;;;;;;4942602;29;20324;-88
2021/11/27 09:20:25;;;;;;;18.52;2.85;;;8.00;99.90;;;;;;4927689;29;20023;-88
2021/11/27 09:22:51;;;;;;;18.17;3.58;;;8.00;99.90;;;;;;4928424;29;20032;-87
2021/11/27 09:25:17;;;;;;;18.98;3.05;;;8.00;99.90;;;;;;4941617;29;20036;-88
2021/11/27 09:27:42;;;;;;;17.27;2.45;;;8.10;99.90;;;;;;4925143;29;20227;-88
2021/11/27 09:30:11;;;;;;;17.23;2.08;;;8.20;99.90;;;;;;4926585;29;20078;-88
2021/11/27 09:32:36;;;;;;;19.55;2.88;;;8.40;99.90;;;;;;4940837;29;20313;-88
2021/11/27 09:35:04;;;;;;;19.42;2.22;;;8.50;99.90;;;;;;4934958;29;20032;-88
2021/11/27 09:37:29;;;;;;;13.55;1.83;;;8.60;99.90;;;;;;4916491;29;20040;-88
2021/11/27 09:39:55;;;;;;;18.88;2.80;;;8.70;99.90;;;;;;4916190;29;20055;-87
2021/11/27 09:42:21;;;;;;;11.15;1.65;;;8.70;99.90;;;;;;4930907;29;20123;-87
2021/11/27 09:44:54;;;;;;;12.65;2.22;;;8.80;99.90;;;;;;4916569;29;20501;-87
2021/11/27 09:47:20;;;;;;;14.23;2.30;;;8.70;99.90;;;;;;4916950;29;20134;-88
2021/11/27 09:49:48;;;;;;;16.85;2.95;;;8.60;99.90;;;;;;4931771;29;20504;-88
2021/11/27 09:52:14;;;;;;;19.08;2.33;;;8.60;99.90;;;;;;4917123;29;20480;-87
2021/11/27 09:54:41;;;;;;;19.02;2.50;;;8.70;99.90;;;;;;4918120;29;20176;-87
2021/11/27 09:57:11;;;;;;;15.07;1.90;;;8.70;99.90;;;;;;4917541;29;20048;-87
2021/11/27 09:59:40;;;;;;;19.67;2.30;;;8.70;99.90;;;;;;4932859;29;20464;-87
2021/11/27 10:02:10;;;;;;;18.75;3.00;;;8.70;99.90;;;;;;4932248;29;20475;-87
2021/11/27 10:04:39;;;;;;;14.90;2.22;;;8.80;99.90;;;;;;4916790;29;20481;-87
2021/11/27 10:07:09;;;;;;;16.38;3.17;;;8.90;99.90;;;;;;4918925;29;20107;-87
2021/11/27 10:09:35;;;;;;;13.70;2.53;;;8.90;99.90;;;;;;4914500;29;20059;-88
2021/11/27 10:12:01;;;;;;;12.43;2.15;;;8.70;99.90;;;;;;4916006;29;20024;-88
2021/11/27 10:14:26;;;;;;;14.13;2.00;;;8.50;99.90;;;;;;4916015;29;20092;-87
2021/11/27 10:16:58;;;;;;;13.75;1.88;;;8.50;99.90;;;;;;4930102;29;20016;-87
2021/11/27 10:19:29;;;;;;;18.60;2.40;;;8.50;99.90;;;;;;4914332;29;20083;-88
2021/11/27 10:21:58;;;;;;;18.77;5.07;;;8.40;99.90;;;;;;4934811;29;20075;-87
2021/11/27 10:24:27;;;;;;;15.93;5.10;;;8.50;99.90;;;;;;4935175;29;20119;-87
2021/11/27 10:26:54;;;;;;;13.45;3.67;;;8.60;99.90;;;;;;4933802;29;20072;-87
2021/11/27 10:29:29;;;;;;;11.65;2.10;;;8.60;99.90;;;;;;4937431;29;20362;-88
2021/11/27 10:32:17;;;;;;;13.95;1.88;;;8.60;99.90;;;;;;4940326;29;20016;-87
2021/11/27 10:34:50;;;;;;;13.18;2.53;;;8.70;99.90;;;;;;4941044;29;20276;-88
2021/11/27 10:37:46;;;;;;;15.75;2.30;;;8.70;99.90;;;;;;4942812;29;20137;-87
2021/11/27 10:40:25;;;;;;;13.63;2.65;;;8.80;99.90;;;;;;4944856;29;20090;-88
2021/11/27 10:43:00;;;;;;;15.13;2.35;;;8.80;99.90;;;;;;4944849;29;20042;-87
2021/11/27 10:45:31;;;;;;;12.77;2.78;;;8.90;99.90;;;;;;4944741;29;20027;-87
2021/11/27 10:48:16;;;;;;;22.35;4.45;;;8.90;99.90;;;;;;4936843;29;20079;-87
2021/11/27 10:50:47;;;;;;;14.13;2.90;;;9.00;99.90;;;;;;4944460;29;20322;-88
2021/11/27 10:53:15;;;;;;;16.55;2.90;;;9.20;99.90;;;;;;4944098;29;20050;-87
2021/11/27 10:55:42;;;;;;;11.57;2.85;;;9.30;99.90;;;;;;4944922;29;20031;-87
2021/11/27 10:58:10;;;;;;;15.75;4.30;;;9.40;99.90;;;;;;4942774;29;20059;-87
2021/11/27 11:00:47;;;;;;;18.00;2.70;;;9.30;99.90;;;;;;4944194;29;20028;-87
2021/11/27 11:03:36;;;;;;;13.38;3.10;;;9.30;99.90;;;;;;4943892;29;20039;-87
2021/11/27 11:06:18;;;;;;;13.90;3.10;;;9.40;99.90;;;;;;4942354;29;20260;-88
2021/11/27 11:08:44;;;;;;;21.15;2.97;;;9.40;99.90;;;;;;4938588;29;20040;-88
2021/11/27 11:11:22;;;;;;;16.02;2.25;;;9.60;99.90;;;;;;4922933;29;20027;-88
2021/11/27 11:13:54;;;;;;;17.88;2.58;;;9.80;99.90;;;;;;4924623;29;20048;-87
2021/11/27 11:16:26;;;;;;;15.85;2.47;;;9.80;99.90;;;;;;4925133;29;20035;-87
2021/11/27 11:19:10;;;;;;;11.93;2.08;;;9.80;99.90;;;;;;4925508;29;20036;-88
2021/11/27 11:21:35;;;;;;;11.93;2.47;;;9.70;99.90;;;;;;4924457;29;20030;-88
2021/11/27 11:24:26;;;;;;;14.98;2.50;;;9.60;99.90;;;;;;4924741;29;20032;-87
2021/11/27 11:26:58;;;;;;;15.52;2.30;;;9.80;99.90;;;;;;4924725;29;20024;-87
2021/11/27 11:29:41;;;;;;;20.58;2.80;;;9.90;99.90;;;;;;4924485;29;20100;-87
2021/11/27 11:32:21;;;;;;;11.73;2.38;;;9.80;99.90;;;;;;4924735;29;20300;-88
2021/11/27 11:34:48;;;;;;;16.40;2.67;;;9.70;99.90;;;;;;4924822;29;20091;-87
2021/11/27 11:37:14;;;;;;;14.30;2.65;;;9.70;99.90;;;;;;4923028;29;20452;-87
2021/11/27 11:39:41;;;;;;;12.13;2.50;;;9.80;99.90;;;;;;4923277;29;20103;-88
2021/11/27 11:42:08;;;;;;;12.05;1.73;;;9.60;99.90;;;;;;4933419;29;20051;-87
2021/11/27 11:44:35;;;;;;;20.17;2.60;;;9.40;99.90;;;;;;4942357;29;20051;-89
2021/11/27 11:47:02;;;;;;;16.70;2.30;;;9.50;99.90;;;;;;4942352;29;20027;-89
2021/11/27 11:49:29;;;;;;;15.38;2.22;;;9.60;99.90;;;;;;4943006;29;20032;-89
2021/11/27 11:52:06;;;;;;;13.52;2.30;;;9.70;99.90;;;;;;4936244;29;20031;-89
2021/11/27 11:54:33;;;;;;;10.55;2.58;;;9.70;99.90;;;;;;4940790;29;20022;-88
2021/11/27 11:57:08;;;;;;;15.07;1.92;;;9.90;99.90;;;;;;4945761;29;20072;-89
2021/11/27 11:59:37;;;;;;;14.10;2.53;;;10.00;99.90;;;;;;4947991;29;20016;-89
2021/11/27 12:02:24;;;;;;;11.15;2.28;;;9.90;99.90;;;;;;4946313;29;20090;-89
2021/11/27 12:05:12;;;;;;;9.35;2.28;;;9.90;99.90;;;;;;4941382;29;20447;-90
2021/11/27 12:07:50;;;;;;;10.18;2.38;;;9.70;99.90;;;;;;4928728;29;20028;-89
2021/11/27 12:10:20;;;;;;;10.20;2.17;;;9.40;99.90;;;;;;4946687;29;20315;-89
2021/11/27 12:13:06;;;;;;;11.98;2.28;;;9.50;99.90;;;;;;4947369;29;20083;-89
2021/11/27 12:15:47;;;;;;;15.90;2.08;;;9.60;99.90;;;;;;4937449;29;20020;-89
2021/11/27 12:18:18;;;;;;;11.55;2.00;;;9.80;99.90;;;;;;4931533;29;20051;-89
2021/11/27 12:20:47;;;;;;;14.60;2.47;;;9.80;99.90;;;;;;4920269;29;20172;-89
2021/11/27 12:26:09;;;;;;;12.70;1.83;;;9.70;99.90;;;;;;4935066;29;20035;-89
2021/11/27 12:28:43;;;;;;;10.50;2.05;;;9.80;99.90;;;;;;4935909;29;20400;-90
2021/11/27 12:31:08;;;;;;;10.82;1.88;;;9.80;99.90;;;;;;4934405;29;20039;-90
2021/11/27 12:33:59;;;;;;;8.20;1.77;;;9.80;99.90;;;;;;4934730;29;20020;-90
2021/11/27 12:36:25;;;;;;;11.40;1.40;;;9.70;99.90;;;;;;4933075;29;20027;-90
2021/11/27 12:38:58;;;;;;;12.80;2.00;;;9.50;99.90;;;;;;4936464;29;20043;-87
2021/11/27 12:41:51;;;;;;;14.52;1.63;;;9.40;99.90;;;;;;4932600;29;20039;-86
2021/11/27 12:44:29;;;;;;;10.32;2.40;;;9.40;99.90;;;;;;4924091;29;20039;-86
2021/11/27 12:47:13;;;;;;;10.40;1.52;;;9.40;99.90;;;;;;4927560;29;20449;-88
2021/11/27 12:49:39;;;;;;;19.30;1.90;;;9.50;99.90;;;;;;4927580;29;20091;-87
2021/11/27 12:52:13;;;;;;;12.48;2.10;;;9.70;99.90;;;;;;4927109;29;20043;-88
2021/11/27 12:54:59;;;;;;;9.73;1.60;;;9.80;99.90;;;;;;4927395;29;20091;-88
2021/11/27 12:57:24;;;;;;;10.20;1.98;;;9.80;99.90;;;;;;4924811;29;20047;-87